TimePST,TemperatureF,Dew PointF,Humidity,Sea Level PressureIn,VisibilityMPH,Wind Direction,Wind SpeedMPH,Gust SpeedMPH,PrecipitationIn,Events,Conditions,WindDirDegrees,DateUTC
12:09 AM,-0.4,-2.2,92,30.61,5.0,Calm,Calm,-,N/A,,Clear,0,2013-01-16 08:09:00
12:55 AM,-0.9,-2.9,91,30.83,5.0,Calm,Calm,-,N/A,,Clear,0,2013-01-16 08:55:00
1:55 AM,-2.0,-6.0,83,30.83,10.0,Calm,Calm,-,N/A,,Clear,0,2013-01-16 09:55:00
2:55 AM,-2.9,-6.0,87,30.84,2.0,Calm,Calm,-,N/A,,Clear,0,2013-01-16 10:55:00
3:05 AM,-4.0,-5.8,92,30.63,10.0,SE,4.6,-,N/A,,Clear,140,2013-01-16 11:05:00
4:55 AM,-4.0,-7.1,87,30.80,7.0,Calm,Calm,-,N/A,,Clear,0,2013-01-16 12:55:00
5:21 AM,-4.0,-7.6,85,30.59,2.0,Calm,Calm,-,N/A,,Clear,0,2013-01-16 13:21:00
5:33 AM,-5.8,-9.4,84,30.59,5.0,Calm,Calm,-,N/A,,Clear,0,2013-01-16 13:33:00
5:55 AM,-5.1,-9.0,83,30.84,10.0,Calm,Calm,-,N/A,,Clear,0,2013-01-16 13:55:00
6:55 AM,-4.0,-8.0,83,30.84,9.0,Calm,Calm,-,N/A,,Clear,0,2013-01-16 14:55:00
7:55 AM,-4.0,-9.0,79,30.87,3.0,Calm,Calm,-,N/A,,Haze,0,2013-01-16 15:55:00
8:55 AM,1.0,-2.0,87,30.86,5.0,Calm,Calm,-,N/A,,Clear,0,2013-01-16 16:55:00
9:55 AM,6.1,3.9,91,30.85,9.0,Calm,Calm,-,N/A,,Clear,0,2013-01-16 17:55:00
10:55 AM,12.9,7.0,77,30.81,10.0,Calm,Calm,-,N/A,,Clear,0,2013-01-16 18:55:00
12:55 PM,19.9,12.0,71,30.74,10.0,Calm,Calm,-,N/A,,Clear,0,2013-01-16 20:55:00
1:55 PM,23.0,12.9,65,30.71,10.0,SE,3.5,-,N/A,,Clear,140,2013-01-16 21:55:00
2:55 PM,23.0,14.0,68,30.70,10.0,SSE,3.5,-,N/A,,Clear,150,2013-01-16 22:55:00
3:55 PM,26.1,14.0,60,30.69,10.0,Calm,Calm,-,N/A,,Clear,0,2013-01-16 23:55:00
4:55 PM,21.0,12.9,71,30.71,10.0,Calm,Calm,-,N/A,,Clear,0,2013-01-17 00:55:00
5:55 PM,17.1,12.0,81,30.74,7.0,Calm,Calm,-,N/A,,Clear,0,2013-01-17 01:55:00
6:55 PM,10.9,8.1,88,30.76,6.0,Calm,Calm,-,N/A,,Clear,0,2013-01-17 02:55:00
7:24 PM,8.6,6.8,92,30.53,2.0,Calm,Calm,-,N/A,,Clear,0,2013-01-17 03:24:00
7:55 PM,5.0,1.9,87,30.79,4.0,Calm,Calm,-,N/A,,Clear,0,2013-01-17 03:55:00
8:55 PM,3.0,1.0,91,30.78,10.0,Calm,Calm,-,N/A,,Clear,0,2013-01-17 04:55:00
9:36 PM,5.0,1.4,85,30.51,2.5,Calm,Calm,-,N/A,,Clear,0,2013-01-17 05:36:00
9:44 PM,6.8,3.2,85,30.51,3.0,Calm,Calm,-,N/A,,Clear,0,2013-01-17 05:44:00
9:55 PM,6.1,3.9,91,30.74,5.0,Calm,Calm,-,N/A,,Clear,0,2013-01-17 05:55:00
10:55 PM,1.9,-0.0,91,30.71,10.0,Calm,Calm,-,N/A,,Clear,0,2013-01-17 06:55:00
11:55 PM,3.0,-0.0,87,30.69,6.0,NNE,3.5,-,N/A,,Clear,20,2013-01-17 07:55:00